Time;durP1;ratioP1;P1;durP2;ratioP2;P2;SDS_P1;SDS_P2;PMS_P1;PMS_P2;Temp;Humidity;BMP_temperature;BMP_pressure;BME280_temperature;BME280_humidity;BME280_pressure;Samples;Min_cycle;Max_cycle;Signal;HPM_P1;HPM_P2
2021/06/08 00:02:17;;;;;;;18.98;17.58;;;14.10;87.00;;;;;;5216426;28;20124;-76
2021/06/08 00:04:49;;;;;;;19.35;17.85;;;14.10;86.80;;;;;;5217810;28;20120;-77
2021/06/08 00:07:21;;;;;;;19.13;17.73;;;14.10;87.00;;;;;;5216569;28;20073;-76
2021/06/08 00:09:53;;;;;;;18.65;17.35;;;14.10;87.10;;;;;;5199090;28;20123;-75
2021/06/08 00:12:24;;;;;;;18.58;17.20;;;14.10;87.10;;;;;;5196928;28;20052;-75
2021/06/08 00:15:03;;;;;;;18.67;17.27;;;14.10;86.90;;;;;;5216012;28;20041;-76
2021/06/08 00:17:35;;;;;;;19.02;17.55;;;14.00;86.80;;;;;;5198610;28;20423;-76
2021/06/08 00:20:08;;;;;;;18.52;17.20;;;14.00;86.40;;;;;;5216086;28;20136;-75
2021/06/08 00:22:40;;;;;;;18.90;17.50;;;13.90;86.50;;;;;;5198693;28;20421;-75
2021/06/08 00:25:13;;;;;;;18.38;17.00;;;13.80;86.80;;;;;;5216716;28;20457;-75
2021/06/08 00:27:44;;;;;;;18.58;17.17;;;13.80;87.00;;;;;;5195403;28;20124;-75
2021/06/08 00:30:17;;;;;;;18.42;17.10;;;13.80;87.10;;;;;;5216058;28;20064;-76
2021/06/08 00:32:49;;;;;;;18.50;17.20;;;13.70;87.20;;;;;;5197002;28;20136;-77
2021/06/08 00:35:22;;;;;;;18.50;17.10;;;13.70;87.20;;;;;;5216007;28;20148;-76
2021/06/08 00:37:54;;;;;;;19.10;17.60;;;13.70;87.30;;;;;;5216200;28;20068;-75
2021/06/08 00:40:27;;;;;;;18.60;17.30;;;13.60;87.70;;;;;;5216417;28;20163;-75
2021/06/08 00:42:59;;;;;;;18.50;17.00;;;13.60;87.70;;;;;;5216601;28;20080;-77
2021/06/08 00:45:31;;;;;;;18.75;17.00;;;13.60;87.70;;;;;;5216484;28;20041;-76
2021/06/08 00:48:05;;;;;;;18.75;17.35;;;13.60;87.70;;;;;;5217531;28;20036;-77
2021/06/08 00:50:52;;;;;;;18.42;17.02;;;13.60;87.70;;;;;;5180613;28;20056;-76
2021/06/08 00:53:24;;;;;;;18.75;17.35;;;13.60;87.80;;;;;;5191686;28;20123;-75
2021/06/08 00:55:56;;;;;;;18.73;17.23;;;13.60;87.80;;;;;;5222359;28;20114;-76
2021/06/08 00:58:28;;;;;;;18.35;16.92;;;13.50;87.50;;;;;;5223910;28;20140;-76
2021/06/08 01:01:00;;;;;;;18.25;16.95;;;13.50;87.60;;;;;;5221369;28;20036;-75
2021/06/08 01:03:32;;;;;;;18.48;17.05;;;13.60;87.80;;;;;;5221781;28;20037;-77
2021/06/08 01:06:04;;;;;;;18.60;17.10;;;13.60;87.40;;;;;;5204898;28;20076;-77
2021/06/08 01:08:36;;;;;;;18.50;17.10;;;13.60;87.30;;;;;;5223388;28;20429;-75
2021/06/08 01:11:08;;;;;;;18.30;17.00;;;13.60;87.20;;;;;;5204545;28;20131;-76
2021/06/08 01:13:41;;;;;;;18.33;16.95;;;13.60;87.20;;;;;;5221673;28;20179;-77
2021/06/08 01:16:13;;;;;;;18.52;17.13;;;13.60;87.00;;;;;;5222164;28;20125;-76
2021/06/08 01:18:46;;;;;;;19.13;17.60;;;13.50;87.80;;;;;;5222998;28;20041;-76
2021/06/08 01:21:17;;;;;;;19.15;17.55;;;13.50;87.20;;;;;;5220789;28;20041;-77
2021/06/08 01:23:50;;;;;;;18.40;17.10;;;13.50;87.00;;;;;;5222077;28;20037;-76
2021/06/08 01:26:27;;;;;;;19.30;17.77;;;13.50;87.10;;;;;;5223872;28;20478;-76
2021/06/08 01:29:03;;;;;;;18.20;16.90;;;13.40;87.00;;;;;;5221823;28;20540;-75
2021/06/08 01:31:37;;;;;;;18.48;17.05;;;13.40;87.10;;;;;;5220504;28;20041;-75
2021/06/08 01:34:09;;;;;;;19.67;17.92;;;13.30;86.90;;;;;;5223419;28;20531;-75
2021/06/08 01:36:42;;;;;;;18.77;17.27;;;13.30;87.10;;;;;;5202535;28;20128;-75
2021/06/08 01:39:14;;;;;;;18.30;17.00;;;13.20;87.10;;;;;;5203614;28;20129;-75
2021/06/08 01:41:46;;;;;;;19.00;17.50;;;13.20;87.40;;;;;;5219677;28;20068;-75
2021/06/08 01:44:18;;;;;;;18.70;17.05;;;13.20;87.30;;;;;;5222923;28;20041;-76
2021/06/08 01:46:51;;;;;;;19.17;17.58;;;13.20;87.30;;;;;;5222812;28;20055;-74
2021/06/08 01:49:23;;;;;;;18.65;17.25;;;13.20;87.40;;;;;;5205321;28;20139;-75
2021/06/08 01:52:16;;;;;;;19.15;17.75;;;13.10;87.50;;;;;;5198977;28;20759;-75
2021/06/08 01:55:02;;;;;;;19.10;17.60;;;13.20;87.60;;;;;;5203437;28;20124;-75
2021/06/08 01:57:48;;;;;;;19.08;17.67;;;13.20;87.70;;;;;;5221261;28;20077;-76
2021/06/08 02:00:45;;;;;;;18.73;17.30;;;13.20;87.90;;;;;;5204649;28;20087;-76
2021/06/08 02:03:30;;;;;;;18.70;17.30;;;13.20;87.60;;;;;;5222205;28;20055;-76
2021/06/08 02:06:21;;;;;;;18.95;17.55;;;13.20;87.50;;;;;;5219715;28;20064;-76
2021/06/08 02:09:17;;;;;;;18.98;17.50;;;13.20;87.30;;;;;;5219382;28;20072;-76
2021/06/08 02:12:13;;;;;;;19.00;17.60;;;13.20;87.30;;;;;;5192112;28;20037;-76
2021/06/08 02:15:01;;;;;;;18.85;17.35;;;13.20;87.30;;;;;;5200771;28;20131;-76
2021/06/08 02:17:39;;;;;;;19.27;17.85;;;13.30;87.50;;;;;;5218168;28;20064;-77
2021/06/08 02:20:25;;;;;;;18.63;17.23;;;13.30;87.20;;;;;;5219293;28;20851;-76
2021/06/08 02:23:03;;;;;;;19.65;17.80;;;13.30;87.30;;;;;;5218798;28;20100;-76
2021/06/08 02:25:35;;;;;;;18.65;17.20;;;13.30;87.30;;;;;;5219313;28;20041;-76
2021/06/08 02:28:10;;;;;;;19.23;17.52;;;13.30;87.20;;;;;;5198082;28;20233;-75
2021/06/08 02:30:46;;;;;;;19.00;17.52;;;13.30;87.20;;;;;;5195912;28;20110;-75
2021/06/08 02:33:19;;;;;;;18.83;17.40;;;13.20;87.00;;;;;;5217621;28;20527;-74
2021/06/08 02:35:52;;;;;;;19.00;17.60;;;13.20;86.90;;;;;;5217792;28;20120;-75
2021/06/08 02:38:25;;;;;;;18.65;17.25;;;13.30;87.00;;;;;;5219119;28;20037;-76
2021/06/08 02:40:59;;;;;;;18.67;17.27;;;13.20;86.70;;;;;;5217851;28;20106;-74
2021/06/08 02:43:33;;;;;;;18.48;17.08;;;13.20;86.80;;;;;;5218520;28;20123;-76
2021/06/08 02:46:07;;;;;;;18.73;17.33;;;13.20;86.70;;;;;;5217970;28;20049;-75
2021/06/08 02:48:40;;;;;;;18.70;17.10;;;13.20;86.60;;;;;;5216866;28;20041;-75
2021/06/08 02:51:13;;;;;;;18.77;17.38;;;13.10;86.70;;;;;;5215083;28;20455;-75
2021/06/08 02:53:45;;;;;;;18.80;17.40;;;13.10;86.80;;;;;;5219512;28;20570;-74
2021/06/08 02:56:17;;;;;;;19.08;17.67;;;13.10;86.60;;;;;;5217844;28;20160;-76
2021/06/08 02:58:49;;;;;;;19.10;17.60;;;13.10;86.80;;;;;;5198473;28;20527;-75
2021/06/08 03:01:21;;;;;;;18.90;17.50;;;13.00;87.10;;;;;;5216527;28;20128;-75
2021/06/08 03:03:59;;;;;;;19.00;17.23;;;13.00;87.30;;;;;;5218548;28;20048;-75
2021/06/08 03:06:39;;;;;;;18.48;17.08;;;13.10;87.30;;;;;;5218211;28;20091;-76
2021/06/08 03:09:15;;;;;;;19.27;17.73;;;13.10;87.10;;;;;;5196399;28;20049;-74
2021/06/08 03:11:50;;;;;;;18.80;17.40;;;13.10;87.10;;;;;;5215818;28;20106;-75
2021/06/08 03:14:24;;;;;;;18.40;17.00;;;13.10;87.00;;;;;;5217632;28;20057;-75
2021/06/08 03:16:58;;;;;;;18.88;17.38;;;13.10;87.30;;;;;;5216896;28;20124;-74
2021/06/08 03:19:33;;;;;;;18.80;17.40;;;13.10;87.10;;;;;;5217977;28;20065;-75
2021/06/08 03:22:13;;;;;;;18.95;17.20;;;13.10;87.20;;;;;;5215401;28;20102;-75
2021/06/08 03:24:51;;;;;;;18.45;17.15;;;13.10;87.80;;;;;;5218898;28;20037;-75
2021/06/08 03:27:23;;;;;;;18.98;17.48;;;13.10;88.10;;;;;;5216514;28;20076;-72
2021/06/08 03:29:59;;;;;;;19.25;17.75;;;13.10;88.40;;;;;;5217552;28;20067;-71
2021/06/08 03:32:34;;;;;;;19.15;17.65;;;13.10;88.10;;;;;;5215942;28;20045;-72
2021/06/08 03:35:08;;;;;;;18.80;17.30;;;13.10;88.00;;;;;;5216015;28;20194;-73
2021/06/08 03:37:41;;;;;;;18.65;17.25;;;13.20;88.50;;;;;;5217248;28;20172;-72
2021/06/08 03:40:15;;;;;;;18.90;17.30;;;13.20;88.70;;;;;;5213510;28;20049;-72
2021/06/08 03:42:48;;;;;;;18.60;17.10;;;13.20;88.60;;;;;;5196911;28;20116;-72
2021/06/08 03:45:22;;;;;;;19.13;17.42;;;13.20;89.40;;;;;;5216143;28;20408;-73
2021/06/08 03:47:55;;;;;;;19.23;17.65;;;13.20;89.90;;;;;;5215778;28;20139;-73
2021/06/08 03:50:27;;;;;;;19.35;17.95;;;13.10;89.60;;;;;;5216633;28;20692;-73
2021/06/08 03:53:01;;;;;;;19.88;18.38;;;13.20;89.40;;;;;;5214873;28;20064;-74
2021/06/08 03:55:33;;;;;;;20.35;18.73;;;13.20;89.60;;;;;;5215711;28;20528;-74
2021/06/08 03:58:13;;;;;;;20.55;18.98;;;13.20;89.70;;;;;;5216041;28;20045;-75
2021/06/08 04:00:47;;;;;;;20.52;18.92;;;13.20;89.90;;;;;;5217386;28;20585;-73
2021/06/08 04:03:19;;;;;;;20.70;19.10;;;13.30;90.70;;;;;;5214885;28;20037;-74
2021/06/08 04:05:54;;;;;;;19.95;18.45;;;13.30;91.00;;;;;;5216451;28;20558;-73
2021/06/08 04:08:26;;;;;;;20.40;18.70;;;13.30;90.80;;;;;;5218065;28;20068;-73
2021/06/08 04:10:58;;;;;;;21.15;19.33;;;13.40;90.40;;;;;;5216436;28;20056;-72
2021/06/08 04:13:30;;;;;;;19.50;18.10;;;13.40;90.90;;;;;;5216328;28;20843;-73
2021/06/08 04:16:03;;;;;;;20.58;18.90;;;13.40;90.50;;;;;;5216787;28;20561;-72
2021/06/08 04:18:36;;;;;;;20.15;18.65;;;13.50;90.80;;;;;;5216341;28;20040;-73
2021/06/08 04:21:08;;;;;;;21.35;19.30;;;13.50;89.90;;;;;;5216309;28;20045;-72
2021/06/08 04:23:42;;;;;;;20.38;18.77;;;13.50;90.40;;;;;;5215614;28;20884;-73
2021/06/08 04:26:15;;;;;;;23.08;20.98;;;13.60;90.30;;;;;;5216530;28;20115;-74
2021/06/08 04:28:47;;;;;;;21.65;19.95;;;13.60;90.70;;;;;;5215557;28;20071;-73
2021/06/08 04:31:23;;;;;;;22.40;20.63;;;13.60;89.60;;;;;;5191859;28;20123;-73
2021/06/08 04:33:55;;;;;;;21.45;19.75;;;13.60;90.80;;;;;;5190328;28;20041;-73
2021/06/08 04:36:27;;;;;;;22.15;20.35;;;13.70;91.30;;;;;;5215570;28;20946;-73
2021/06/08 04:38:59;;;;;;;22.02;20.33;;;13.70;91.10;;;;;;5217125;28;20223;-72
2021/06/08 04:41:32;;;;;;;22.50;20.60;;;13.70;91.60;;;;;;5215380;28;20126;-74
2021/06/08 04:44:05;;;;;;;22.23;20.33;;;13.70;91.50;;;;;;5216101;28;20076;-74
2021/06/08 04:46:38;;;;;;;22.77;20.80;;;13.70;91.20;;;;;;5214784;28;20645;-74
2021/06/08 04:49:15;;;;;;;22.20;20.50;;;13.80;90.40;;;;;;5216439;28;20052;-72
2021/06/08 04:51:47;;;;;;;22.33;20.52;;;13.80;91.30;;;;;;5214476;28;20057;-74
2021/06/08 04:54:23;;;;;;;21.83;20.23;;;13.80;91.60;;;;;;5216281;28;20037;-72
2021/06/08 04:56:56;;;;;;;20.70;19.02;;;13.80;90.70;;;;;;5197981;28;20127;-71
2021/06/08 04:59:37;;;;;;;20.63;19.02;;;13.80;90.80;;;;;;5194208;28;20508;-72
2021/06/08 05:02:14;;;;;;;21.70;20.10;;;13.80;89.90;;;;;;5213760;28;20779;-73
2021/06/08 05:04:46;;;;;;;21.25;19.65;;;13.90;91.30;;;;;;5216710;28;20041;-74
2021/06/08 05:07:21;;;;;;;22.13;20.42;;;13.90;91.30;;;;;;5214711;28;20107;-73
2021/06/08 05:09:54;;;;;;;23.20;21.40;;;13.90;91.60;;;;;;5165304;28;20048;-74
2021/06/08 05:12:27;;;;;;;22.63;20.90;;;13.90;91.80;;;;;;5215022;28;20060;-74
2021/06/08 05:15:01;;;;;;;23.38;21.42;;;14.00;91.20;;;;;;5215644;28;20123;-72
2021/06/08 05:17:35;;;;;;;23.13;21.33;;;14.00;92.30;;;;;;5195270;28;20156;-74
2021/06/08 05:20:09;;;;;;;23.20;21.40;;;14.00;91.80;;;;;;5215222;28;20033;-73
2021/06/08 05:22:42;;;;;;;23.80;21.95;;;14.00;91.80;;;;;;5178236;28;20161;-73
2021/06/08 05:25:14;;;;;;;23.17;21.40;;;14.00;91.80;;;;;;5212918;28;20048;-73
2021/06/08 05:27:47;;;;;;;21.63;20.02;;;14.10;91.50;;;;;;5213509;28;20045;-74
2021/06/08 05:30:20;;;;;;;22.30;20.60;;;14.10;91.20;;;;;;5213532;28;20044;-74
2021/06/08 05:32:52;;;;;;;22.80;20.80;;;14.20;91.40;;;;;;5213546;28;20130;-73
2021/06/08 05:35:26;;;;;;;22.45;20.83;;;14.30;91.90;;;;;;5210697;28;20088;-74
2021/06/08 05:38:06;;;;;;;22.65;20.85;;;14.30;91.70;;;;;;5215335;28;20592;-74
2021/06/08 05:40:41;;;;;;;22.55;20.63;;;14.30;91.70;;;;;;5197882;28;20044;-75
2021/06/08 05:43:15;;;;;;;22.15;20.30;;;14.40;92.00;;;;;;5199763;28;20112;-74
2021/06/08 05:45:49;;;;;;;22.50;20.80;;;14.40;91.70;;;;;;5213910;28;20040;-73
2021/06/08 05:48:22;;;;;;;22.40;20.60;;;14.50;91.50;;;;;;5182787;28;20052;-74
2021/06/08 05:50:59;;;;;;;21.35;19.67;;;14.50;91.60;;;;;;5218178;28;20045;-73
2021/06/08 05:53:36;;;;;;;20.80;19.30;;;14.50;91.50;;;;;;5201503;28;20044;-72
2021/06/08 05:56:09;;;;;;;20.92;19.23;;;14.60;91.30;;;;;;5219655;28;20735;-72
2021/06/08 05:58:41;;;;;;;22.10;19.88;;;14.60;91.10;;;;;;5220129;28;20073;-72
2021/06/08 06:01:13;;;;;;;21.50;19.90;;;14.60;90.90;;;;;;5215976;28;20574;-72
2021/06/08 06:03:46;;;;;;;20.88;19.38;;;14.70;91.20;;;;;;5201157;28;20048;-72
2021/06/08 06:06:19;;;;;;;20.40;18.90;;;14.70;91.40;;;;;;5218255;28;20173;-73
2021/06/08 06:08:51;;;;;;;20.92;19.42;;;14.70;91.40;;;;;;5218835;28;20080;-73
2021/06/08 06:11:24;;;;;;;20.60;19.10;;;14.70;91.10;;;;;;5218159;28;20100;-73
2021/06/08 06:14:04;;;;;;;20.38;18.88;;;14.80;90.80;;;;;;5202113;28;20582;-71
2021/06/08 06:16:45;;;;;;;20.83;19.33;;;14.80;90.70;;;;;;5200497;28;20136;-72
2021/06/08 06:19:18;;;;;;;20.63;19.13;;;14.80;90.60;;;;;;5218288;28;20175;-72
2021/06/08 06:21:54;;;;;;;20.67;19.17;;;14.90;90.90;;;;;;5217674;28;20102;-71
2021/06/08 06:24:27;;;;;;;20.60;19.10;;;15.00;90.60;;;;;;5200757;28;20443;-71
2021/06/08 06:26:59;;;;;;;20.33;18.88;;;15.00;89.40;;;;;;5218120;28;20773;-71
2021/06/08 06:29:32;;;;;;;20.02;18.63;;;15.00;89.20;;;;;;5218793;28;20041;-72
2021/06/08 06:32:04;;;;;;;19.48;18.08;;;15.10;89.40;;;;;;5217898;28;20055;-72
2021/06/08 06:34:37;;;;;;;20.10;18.70;;;15.20;89.80;;;;;;5218877;28;20049;-72
2021/06/08 06:37:09;;;;;;;19.98;18.48;;;15.20;89.30;;;;;;5218935;28;20126;-71
2021/06/08 06:39:45;;;;;;;20.02;18.63;;;15.30;89.10;;;;;;5219315;28;20716;-71
2021/06/08 06:42:18;;;;;;;19.27;17.88;;;15.30;88.40;;;;;;5217520;28;20136;-70
2021/06/08 06:44:51;;;;;;;19.40;18.00;;;15.30;87.90;;;;;;5219728;28;20081;-70
2021/06/08 06:47:23;;;;;;;19.27;17.88;;;15.40;89.20;;;;;;5217876;28;20142;-69
2021/06/08 06:49:55;;;;;;;19.55;18.15;;;15.50;88.80;;;;;;5219164;28;20134;-71
2021/06/08 06:52:27;;;;;;;19.45;18.05;;;15.60;88.40;;;;;;5216286;28;20787;-70
2021/06/08 06:54:59;;;;;;;19.40;18.00;;;15.60;87.60;;;;;;5194543;28;20048;-71
2021/06/08 06:57:33;;;;;;;19.67;18.08;;;15.70;86.10;;;;;;5219229;28;20049;-71
2021/06/08 07:00:06;;;;;;;19.60;18.10;;;15.80;87.50;;;;;;5218145;28;20496;-71
2021/06/08 07:02:40;;;;;;;19.20;17.70;;;15.90;88.20;;;;;;5217857;28;20064;-70
2021/06/08 07:05:14;;;;;;;19.92;18.42;;;16.00;87.70;;;;;;5218817;28;20048;-71
2021/06/08 07:07:47;;;;;;;19.90;18.50;;;16.10;87.30;;;;;;5219255;28;20567;-71
2021/06/08 07:10:22;;;;;;;19.17;17.77;;;16.20;87.60;;;;;;5217573;28;20145;-71
2021/06/08 07:12:55;;;;;;;19.45;18.05;;;16.20;86.00;;;;;;5200765;28;20045;-71
2021/06/08 07:15:28;;;;;;;19.80;18.40;;;16.30;86.80;;;;;;5217820;28;20059;-70
2021/06/08 07:18:01;;;;;;;20.42;18.45;;;16.40;86.00;;;;;;5201083;28;20119;-71
2021/06/08 07:20:34;;;;;;;19.15;17.65;;;16.50;85.20;;;;;;5218211;28;20052;-71
2021/06/08 07:23:08;;;;;;;19.60;18.02;;;16.60;85.80;;;;;;5217725;28;20064;-71
2021/06/08 07:25:40;;;;;;;19.50;17.90;;;16.70;83.20;;;;;;5216373;28;20127;-71
2021/06/08 07:28:12;;;;;;;19.73;18.33;;;16.70;84.40;;;;;;5219011;28;20132;-71
2021/06/08 07:30:45;;;;;;;19.92;18.27;;;16.70;82.00;;;;;;5217785;28;20049;-70
2021/06/08 07:33:48;;;;;;;19.90;18.40;;;16.80;84.10;;;;;;5217785;28;20049;-71
2021/06/08 07:36:28;;;;;;;19.67;18.27;;;16.80;83.60;;;;;;5218011;28;20049;-71
2021/06/08 07:39:09;;;;;;;20.65;19.05;;;17.10;84.20;;;;;;5216894;28;20419;-71
2021/06/08 07:42:02;;;;;;;19.40;18.10;;;17.40;82.60;;;;;;5215545;28;20068;-71
2021/06/08 07:44:55;;;;;;;19.55;17.90;;;17.50;82.80;;;;;;5218018;28;20064;-72
2021/06/08 07:47:33;;;;;;;18.95;17.65;;;17.70;81.90;;;;;;5218282;28;20521;-71
2021/06/08 07:50:08;;;;;;;18.95;17.60;;;17.90;83.50;;;;;;5217594;28;20045;-71
2021/06/08 07:52:40;;;;;;;19.52;18.13;;;18.00;82.60;;;;;;5217871;28;20167;-70
2021/06/08 07:55:13;;;;;;;19.35;17.95;;;18.00;83.30;;;;;;5217872;28;20119;-71
2021/06/08 07:57:48;;;;;;;19.05;17.67;;;17.90;80.70;;;;;;5217982;28;20041;-70
2021/06/08 08:00:21;;;;;;;19.23;17.88;;;17.90;79.80;;;;;;5216857;28;20049;-72
2021/06/08 08:02:54;;;;;;;18.98;17.67;;;17.90;81.70;;;;;;5216672;28;20483;-71
2021/06/08 08:05:27;;;;;;;19.10;17.70;;;18.00;81.00;;;;;;5215786;28;20056;-71
2021/06/08 08:07:59;;;;;;;18.55;17.15;;;17.90;81.80;;;;;;5218737;28;20602;-71
2021/06/08 08:10:31;;;;;;;18.52;17.23;;;18.00;80.00;;;;;;5219133;28;20527;-71
2021/06/08 08:13:03;;;;;;;18.65;17.25;;;18.00;78.40;;;;;;5217481;28;20055;-72
2021/06/08 08:15:35;;;;;;;18.23;16.92;;;18.10;82.50;;;;;;5218095;28;20106;-72
2021/06/08 08:18:07;;;;;;;18.60;17.30;;;18.20;81.10;;;;;;5219443;28;20045;-72
2021/06/08 08:20:53;;;;;;;18.25;16.98;;;18.30;78.90;;;;;;5218412;28;20041;-72
2021/06/08 08:23:29;;;;;;;19.10;17.70;;;18.40;80.20;;;;;;5196844;28;20048;-71
2021/06/08 08:26:06;;;;;;;18.65;17.35;;;18.50;80.40;;;;;;5217319;28;20053;-72
2021/06/08 08:28:40;;;;;;;18.88;17.38;;;18.60;80.50;;;;;;5220108;28;20516;-71
2021/06/08 08:31:15;;;;;;;18.85;17.52;;;18.60;78.30;;;;;;5217986;28;20472;-72
2021/06/08 08:33:47;;;;;;;18.35;16.95;;;18.70;79.20;;;;;;5217331;28;20088;-72
2021/06/08 08:36:19;;;;;;;18.17;16.77;;;18.70;78.30;;;;;;5201030;28;20130;-73
2021/06/08 08:38:51;;;;;;;18.42;17.08;;;18.70;77.80;;;;;;5219503;28;20115;-73
2021/06/08 08:41:23;;;;;;;17.98;16.67;;;18.90;80.00;;;;;;5216959;28;20049;-72
2021/06/08 08:43:55;;;;;;;18.50;17.20;;;19.00;81.00;;;;;;5218898;28;20053;-73
2021/06/08 08:46:27;;;;;;;18.98;17.58;;;19.00;77.80;;;;;;5219090;28;20077;-72
2021/06/08 08:48:59;;;;;;;18.70;17.33;;;19.10;80.30;;;;;;5200641;28;20056;-72
2021/06/08 08:51:33;;;;;;;18.50;17.20;;;19.10;80.90;;;;;;5217850;28;20610;-72
2021/06/08 08:54:05;;;;;;;18.70;17.40;;;19.20;78.90;;;;;;5198547;28;20117;-71
2021/06/08 08:56:39;;;;;;;18.42;17.13;;;19.30;80.80;;;;;;5217900;28;20045;-72
2021/06/08 08:59:14;;;;;;;19.40;17.90;;;19.30;78.90;;;;;;5219247;28;20161;-72
2021/06/08 09:01:49;;;;;;;19.17;17.77;;;19.40;80.50;;;;;;5217538;28;20069;-72
2021/06/08 09:04:22;;;;;;;19.00;17.70;;;19.40;78.40;;;;;;5219381;28;20072;-72
2021/06/08 09:06:54;;;;;;;19.10;17.80;;;19.40;77.90;;;;;;5218401;28;20065;-72
2021/06/08 09:09:28;;;;;;;18.85;17.33;;;19.50;80.10;;;;;;5218865;28;20118;-71
2021/06/08 09:12:04;;;;;;;19.23;17.85;;;19.60;80.00;;;;;;5200304;28;20729;-71
2021/06/08 09:14:36;;;;;;;18.35;17.05;;;19.60;80.60;;;;;;5217697;28;20107;-71
2021/06/08 09:17:08;;;;;;;19.25;17.85;;;19.70;79.20;;;;;;5222715;28;20045;-72
2021/06/08 09:19:40;;;;;;;19.08;17.63;;;19.70;78.50;;;;;;5221820;28;20049;-71
2021/06/08 09:22:13;;;;;;;18.75;17.45;;;19.70;79.30;;;;;;5221902;28;20578;-72
2021/06/08 09:24:54;;;;;;;18.85;17.45;;;19.80;79.10;;;;;;5223461;28;20089;-72
2021/06/08 09:27:30;;;;;;;18.95;17.65;;;19.80;77.20;;;;;;5222697;28;20560;-72
2021/06/08 09:30:13;;;;;;;18.63;17.33;;;19.90;78.80;;;;;;5222180;28;20053;-72
2021/06/08 09:32:45;;;;;;;19.38;18.02;;;20.00;78.40;;;;;;5202462;28;20596;-71
2021/06/08 09:35:17;;;;;;;18.95;17.65;;;20.00;78.90;;;;;;5197013;28;20059;-71
2021/06/08 09:37:49;;;;;;;18.88;17.58;;;20.10;80.40;;;;;;5220961;28;20557;-72
2021/06/08 09:40:26;;;;;;;18.70;17.40;;;20.10;77.30;;;;;;5219519;28;20075;-71
2021/06/08 09:43:12;;;;;;;18.92;17.52;;;20.10;77.30;;;;;;5220950;28;20144;-72
2021/06/08 09:45:50;;;;;;;19.55;18.15;;;20.20;78.80;;;;;;5221630;28;20049;-73
2021/06/08 09:48:22;;;;;;;19.27;17.88;;;20.20;75.70;;;;;;5221898;28;20045;-72
2021/06/08 09:50:54;;;;;;;18.85;17.55;;;20.20;78.10;;;;;;5221417;28;20045;-73
2021/06/08 09:53:29;;;;;;;20.27;18.67;;;20.30;78.30;;;;;;5220815;28;20053;-73
2021/06/08 09:56:08;;;;;;;19.90;18.50;;;20.30;78.20;;;;;;5197714;28;20170;-73
2021/06/08 09:58:48;;;;;;;19.77;18.38;;;20.30;76.60;;;;;;5199808;28;20088;-72
2021/06/08 10:01:23;;;;;;;19.48;18.08;;;20.40;75.00;;;;;;5219068;28;20796;-73
2021/06/08 10:03:57;;;;;;;20.70;19.10;;;20.40;73.90;;;;;;5220655;28;20148;-73
2021/06/08 10:06:39;;;;;;;19.60;18.10;;;20.40;74.90;;;;;;5205377;28;20073;-72
2021/06/08 10:09:15;;;;;;;20.60;18.90;;;20.50;74.50;;;;;;5216974;28;20582;-73
2021/06/08 10:12:03;;;;;;;20.10;18.70;;;20.60;75.50;;;;;;5217699;28;20041;-74
2021/06/08 10:14:39;;;;;;;20.60;19.10;;;20.60;73.30;;;;;;5220256;28;20064;-74
2021/06/08 10:17:12;;;;;;;20.40;18.80;;;20.70;74.70;;;;;;5218609;28;20156;-74
2021/06/08 10:19:45;;;;;;;19.33;17.92;;;20.80;74.30;;;;;;5219413;28;20047;-74
2021/06/08 10:22:30;;;;;;;20.10;18.60;;;20.90;73.00;;;;;;5219277;28;20122;-73
2021/06/08 10:25:04;;;;;;;19.98;18.48;;;20.90;71.90;;;;;;5218821;28;20060;-74
2021/06/08 10:27:36;;;;;;;20.00;18.60;;;20.80;70.60;;;;;;5217275;28;20039;-74
2021/06/08 10:30:09;;;;;;;20.25;18.75;;;20.90;71.30;;;;;;5218199;28;20507;-73
2021/06/08 10:32:41;;;;;;;19.15;17.85;;;20.90;72.50;;;;;;5216834;28;20518;-75
2021/06/08 10:35:14;;;;;;;19.05;17.75;;;21.00;70.60;;;;;;5217839;28;20045;-72
2021/06/08 10:37:47;;;;;;;19.95;18.45;;;21.20;72.00;;;;;;5219340;28;20130;-73
2021/06/08 10:40:19;;;;;;;19.60;18.20;;;21.10;69.60;;;;;;5197688;28;20119;-73
2021/06/08 10:42:51;;;;;;;20.15;18.48;;;21.20;70.00;;;;;;5212025;28;20440;-73
2021/06/08 10:45:36;;;;;;;19.17;17.77;;;21.30;70.80;;;;;;5217380;28;20037;-73
2021/06/08 10:48:19;;;;;;;20.42;18.73;;;21.50;69.40;;;;;;5217941;28;20116;-73
2021/06/08 10:51:11;;;;;;;19.58;18.17;;;21.50;68.90;;;;;;5215093;28;20663;-72
2021/06/08 10:53:49;;;;;;;20.40;18.90;;;21.70;68.20;;;;;;5218049;28;20041;-72
2021/06/08 10:56:27;;;;;;;20.02;18.58;;;21.80;66.60;;;;;;5216960;28;20065;-72
2021/06/08 10:59:08;;;;;;;20.00;18.60;;;21.90;67.60;;;;;;5219277;28;20037;-73
2021/06/08 11:01:41;;;;;;;20.75;19.25;;;21.90;66.70;;;;;;5215982;28;20683;-73
2021/06/08 11:04:14;;;;;;;20.50;18.80;;;22.00;66.50;;;;;;5218187;28;20512;-74
2021/06/08 11:06:55;;;;;;;20.80;19.30;;;22.10;67.80;;;;;;5217194;28;20505;-73
2021/06/08 11:09:33;;;;;;;20.27;18.88;;;22.10;64.20;;;;;;5200612;28;20032;-74
2021/06/08 11:12:08;;;;;;;22.17;20.48;;;22.00;64.10;;;;;;5215654;28;20045;-74
2021/06/08 11:17:28;;;;;;;20.58;19.10;;;21.90;65.60;;;;;;5216762;28;20143;-74
2021/06/08 11:20:06;;;;;;;21.15;19.60;;;21.80;66.00;;;;;;5199808;28;20041;-74
2021/06/08 11:22:41;;;;;;;22.10;20.50;;;21.80;65.20;;;;;;5216197;28;20053;-74
2021/06/08 11:25:35;;;;;;;22.52;20.80;;;21.80;65.90;;;;;;5217206;28;20083;-72
2021/06/08 11:28:17;;;;;;;21.38;19.88;;;21.80;66.40;;;;;;5217978;28;20118;-72
2021/06/08 11:31:00;;;;;;;20.67;19.17;;;21.80;64.50;;;;;;5216219;28;20045;-72
2021/06/08 11:33:38;;;;;;;21.90;20.35;;;22.00;68.10;;;;;;5199825;28;20420;-74
2021/06/08 11:36:19;;;;;;;20.52;19.02;;;22.10;67.50;;;;;;5193196;28;20125;-73
2021/06/08 11:38:54;;;;;;;21.65;20.05;;;22.10;65.00;;;;;;5195446;28;20053;-74
2021/06/08 11:41:26;;;;;;;22.05;20.45;;;22.20;65.10;;;;;;5181266;28;20040;-73
2021/06/08 11:44:02;;;;;;;21.58;19.90;;;22.30;65.50;;;;;;5217663;28;20457;-72
2021/06/08 11:47:07;;;;;;;23.55;21.85;;;22.40;65.40;;;;;;5216864;28;20114;-74
2021/06/08 11:49:57;;;;;;;23.92;22.02;;;22.50;65.30;;;;;;5201159;28;20736;-73
2021/06/08 11:52:29;;;;;;;22.63;20.83;;;22.50;65.00;;;;;;5215519;28;20509;-74
2021/06/08 11:55:01;;;;;;;23.63;21.63;;;22.40;62.90;;;;;;5217268;28;20106;-74
2021/06/08 11:57:39;;;;;;;23.55;21.80;;;22.40;64.60;;;;;;5216571;28;20202;-75
2021/06/08 12:00:12;;;;;;;24.38;22.42;;;22.40;64.90;;;;;;5215112;28;20040;-74
2021/06/08 12:02:49;;;;;;;25.85;23.55;;;22.40;64.90;;;;;;5217086;28;20065;-74
2021/06/08 12:05:23;;;;;;;25.52;23.52;;;22.30;65.80;;;;;;5197528;28;20053;-72
2021/06/08 12:08:03;;;;;;;24.45;22.58;;;22.30;66.60;;;;;;5196492;28;20160;-72
2021/06/08 12:10:38;;;;;;;25.08;23.08;;;22.50;65.80;;;;;;5213052;28;20107;-72
2021/06/08 12:13:14;;;;;;;23.25;21.25;;;22.80;64.10;;;;;;5215901;28;20064;-73
2021/06/08 12:15:53;;;;;;;22.45;20.73;;;23.10;66.80;;;;;;5217653;28;20478;-73
2021/06/08 12:18:37;;;;;;;22.33;20.73;;;23.30;65.30;;;;;;5213396;28;20046;-72
2021/06/08 12:21:20;;;;;;;22.65;20.52;;;23.30;63.70;;;;;;5215012;28;20044;-72
2021/06/08 12:23:56;;;;;;;21.80;20.08;;;23.40;63.30;;;;;;5213368;28;20041;-73
2021/06/08 12:26:29;;;;;;;22.10;20.50;;;23.60;61.80;;;;;;5212068;28;20133;-72
2021/06/08 12:29:13;;;;;;;22.30;20.40;;;23.70;61.50;;;;;;5215804;28;20693;-73
2021/06/08 12:31:56;;;;;;;22.05;20.33;;;23.60;62.30;;;;;;5214587;28;20095;-73
2021/06/08 12:34:35;;;;;;;21.58;19.98;;;23.50;61.90;;;;;;5217038;28;20522;-73
2021/06/08 12:37:07;;;;;;;21.45;19.85;;;23.60;63.60;;;;;;5214557;28;20044;-74
2021/06/08 12:39:39;;;;;;;22.02;20.42;;;23.50;60.30;;;;;;5213608;28;20554;-73
2021/06/08 12:42:14;;;;;;;22.27;20.45;;;23.40;62.40;;;;;;5214668;28;20130;-73
2021/06/08 12:44:47;;;;;;;22.85;21.15;;;23.50;61.60;;;;;;5212645;28;20052;-73
2021/06/08 12:47:24;;;;;;;22.67;20.98;;;23.50;62.30;;;;;;5215697;28;20041;-74
2021/06/08 12:49:56;;;;;;;22.77;21.08;;;23.70;64.10;;;;;;5214184;28;20123;-72
2021/06/08 12:52:28;;;;;;;23.40;21.60;;;23.90;62.70;;;;;;5215181;28;20512;-72
2021/06/08 12:55:09;;;;;;;21.90;20.30;;;24.00;61.30;;;;;;5215743;28;20217;-72
2021/06/08 12:57:41;;;;;;;23.23;21.42;;;23.70;60.00;;;;;;5216795;28;20060;-75
2021/06/08 13:00:18;;;;;;;23.00;21.23;;;23.50;61.80;;;;;;5197013;28;20052;-73
2021/06/08 13:02:53;;;;;;;21.85;20.25;;;23.60;63.50;;;;;;5214628;28;20041;-73
2021/06/08 13:05:30;;;;;;;23.00;21.20;;;23.80;62.20;;;;;;5215733;28;20559;-74
2021/06/08 13:08:03;;;;;;;22.90;21.13;;;24.00;62.40;;;;;;5213345;28;20068;-73
2021/06/08 13:10:37;;;;;;;23.13;21.33;;;24.20;60.80;;;;;;5214054;28;20567;-72
2021/06/08 13:13:11;;;;;;;22.67;20.77;;;24.30;59.00;;;;;;5214272;28;20133;-72